sensor_id;sensor_type;location;lat;lon;timestamp;P1;durP1;ratioP1;P2;durP2;ratioP2
20080;SDS011;10200;49.232;9.222;2024-01-15T00:01:45;48.53;;;20.03;;
20080;SDS011;10200;49.232;9.222;2024-01-15T00:04:10;46.47;;;19.47;;
20080;SDS011;10200;49.232;9.222;2024-01-15T00:06:36;46.00;;;19.90;;
20080;SDS011;10200;49.232;9.222;2024-01-15T00:09:02;46.03;;;18.70;;
20080;SDS011;10200;49.232;9.222;2024-01-15T00:11:27;42.43;;;17.80;;
20080;SDS011;10200;49.232;9.222;2024-01-15T00:13:53;46.17;;;20.07;;
20080;SDS011;10200;49.232;9.222;2024-01-15T00:16:18;47.67;;;19.27;;
20080;SDS011;10200;49.232;9.222;2024-01-15T00:18:44;44.30;;;19.03;;
20080;SDS011;10200;49.232;9.222;2024-01-15T00:21:10;45.77;;;18.70;;
20080;SDS011;10200;49.232;9.222;2024-01-15T00:23:35;46.73;;;19.73;;
20080;SDS011;10200;49.232;9.222;2024-01-15T00:26:01;44.90;;;18.47;;
20080;SDS011;10200;49.232;9.222;2024-01-15T00:28:26;46.73;;;21.27;;
20080;SDS011;10200;49.232;9.222;2024-01-15T00:30:52;43.07;;;18.63;;
20080;SDS011;10200;49.232;9.222;2024-01-15T00:33:18;40.20;;;17.17;;
20080;SDS011;10200;49.232;9.222;2024-01-15T00:35:43;46.33;;;18.87;;
20080;SDS011;10200;49.232;9.222;2024-01-15T00:38:09;44.63;;;19.03;;
20080;SDS011;10200;49.232;9.222;2024-01-15T00:40:34;43.63;;;19.20;;
20080;SDS011;10200;49.232;9.222;2024-01-15T00:43:00;39.33;;;19.80;;
20080;SDS011;10200;49.232;9.222;2024-01-15T00:45:27;45.90;;;18.63;;
20080;SDS011;10200;49.232;9.222;2024-01-15T00:47:52;44.43;;;18.60;;
20080;SDS011;10200;49.232;9.222;2024-01-15T00:50:18;41.87;;;19.67;;
20080;SDS011;10200;49.232;9.222;2024-01-15T00:52:43;47.50;;;19.40;;
20080;SDS011;10200;49.232;9.222;2024-01-15T00:55:09;42.47;;;18.40;;
20080;SDS011;10200;49.232;9.222;2024-01-15T00:57:34;48.43;;;18.83;;
20080;SDS011;10200;49.232;9.222;2024-01-15T01:00:00;50.63;;;20.03;;
20080;SDS011;10200;49.232;9.222;2024-01-15T01:02:26;44.97;;;19.70;;
20080;SDS011;10200;49.232;9.222;2024-01-15T01:04:52;48.83;;;20.13;;
20080;SDS011;10200;49.232;9.222;2024-01-15T01:07:17;44.83;;;19.90;;
20080;SDS011;10200;49.232;9.222;2024-01-15T01:09:44;44.87;;;18.87;;
20080;SDS011;10200;49.232;9.222;2024-01-15T01:12:10;43.90;;;18.40;;
20080;SDS011;10200;49.232;9.222;2024-01-15T01:14:36;38.33;;;18.27;;
20080;SDS011;10200;49.232;9.222;2024-01-15T01:17:02;44.30;;;17.80;;
20080;SDS011;10200;49.232;9.222;2024-01-15T01:19:28;37.10;;;17.47;;
20080;SDS011;10200;49.232;9.222;2024-01-15T01:21:55;43.87;;;18.07;;
20080;SDS011;10200;49.232;9.222;2024-01-15T01:24:21;43.03;;;18.03;;
20080;SDS011;10200;49.232;9.222;2024-01-15T01:26:46;41.23;;;17.83;;
20080;SDS011;10200;49.232;9.222;2024-01-15T01:29:12;47.63;;;17.33;;
20080;SDS011;10200;49.232;9.222;2024-01-15T01:31:42;32.10;;;15.50;;
20080;SDS011;10200;49.232;9.222;2024-01-15T01:34:13;35.47;;;16.70;;
20080;SDS011;10200;49.232;9.222;2024-01-15T01:36:39;36.10;;;17.33;;
20080;SDS011;10200;49.232;9.222;2024-01-15T01:39:05;38.97;;;18.17;;
20080;SDS011;10200;49.232;9.222;2024-01-15T01:41:30;39.27;;;16.83;;
20080;SDS011;10200;49.232;9.222;2024-01-15T01:43:56;44.03;;;19.40;;
20080;SDS011;10200;49.232;9.222;2024-01-15T01:46:22;34.97;;;16.37;;
20080;SDS011;10200;49.232;9.222;2024-01-15T01:48:49;36.80;;;16.27;;
20080;SDS011;10200;49.232;9.222;2024-01-15T01:51:15;33.30;;;15.73;;
20080;SDS011;10200;49.232;9.222;2024-01-15T01:53:40;34.90;;;16.13;;
20080;SDS011;10200;49.232;9.222;2024-01-15T01:56:06;37.90;;;17.33;;
20080;SDS011;10200;49.232;9.222;2024-01-15T01:58:32;38.13;;;16.93;;
20080;SDS011;10200;49.232;9.222;2024-01-15T02:00:59;41.47;;;17.57;;
20080;SDS011;10200;49.232;9.222;2024-01-15T02:03:25;37.37;;;17.20;;
20080;SDS011;10200;49.232;9.222;2024-01-15T02:05:52;36.33;;;15.90;;
20080;SDS011;10200;49.232;9.222;2024-01-15T02:08:18;41.17;;;17.17;;
20080;SDS011;10200;49.232;9.222;2024-01-15T02:10:44;38.37;;;17.10;;
20080;SDS011;10200;49.232;9.222;2024-01-15T02:13:09;36.57;;;16.37;;
20080;SDS011;10200;49.232;9.222;2024-01-15T02:15:35;36.23;;;15.67;;
20080;SDS011;10200;49.232;9.222;2024-01-15T02:18:04;35.43;;;15.17;;
20080;SDS011;10200;49.232;9.222;2024-01-15T02:20:32;37.73;;;16.40;;
20080;SDS011;10200;49.232;9.222;2024-01-15T02:23:08;31.13;;;15.00;;
20080;SDS011;10200;49.232;9.222;2024-01-15T02:25:35;35.40;;;15.67;;
20080;SDS011;10200;49.232;9.222;2024-01-15T02:28:03;33.17;;;16.90;;
20080;SDS011;10200;49.232;9.222;2024-01-15T02:30:29;33.73;;;13.73;;
20080;SDS011;10200;49.232;9.222;2024-01-15T02:32:56;32.13;;;13.80;;
20080;SDS011;10200;49.232;9.222;2024-01-15T02:35:21;38.57;;;16.07;;
20080;SDS011;10200;49.232;9.222;2024-01-15T02:37:47;34.83;;;14.47;;
20080;SDS011;10200;49.232;9.222;2024-01-15T02:40:12;37.83;;;15.60;;
20080;SDS011;10200;49.232;9.222;2024-01-15T02:42:38;32.17;;;14.40;;
20080;SDS011;10200;49.232;9.222;2024-01-15T02:45:04;35.27;;;14.57;;
20080;SDS011;10200;49.232;9.222;2024-01-15T02:47:30;28.73;;;14.23;;
20080;SDS011;10200;49.232;9.222;2024-01-15T02:49:55;34.67;;;14.97;;
20080;SDS011;10200;49.232;9.222;2024-01-15T02:52:21;35.13;;;15.00;;
20080;SDS011;10200;49.232;9.222;2024-01-15T02:54:46;32.67;;;14.50;;
20080;SDS011;10200;49.232;9.222;2024-01-15T02:57:12;31.40;;;14.97;;
20080;SDS011;10200;49.232;9.222;2024-01-15T02:59:37;30.87;;;14.90;;
20080;SDS011;10200;49.232;9.222;2024-01-15T03:02:03;34.13;;;15.17;;
20080;SDS011;10200;49.232;9.222;2024-01-15T03:04:29;37.40;;;14.90;;
20080;SDS011;10200;49.232;9.222;2024-01-15T03:06:54;31.77;;;14.13;;
20080;SDS011;10200;49.232;9.222;2024-01-15T03:09:20;35.43;;;14.13;;
20080;SDS011;10200;49.232;9.222;2024-01-15T03:11:45;32.83;;;14.30;;
20080;SDS011;10200;49.232;9.222;2024-01-15T03:14:11;38.70;;;16.63;;
20080;SDS011;10200;49.232;9.222;2024-01-15T03:16:37;30.43;;;13.13;;
20080;SDS011;10200;49.232;9.222;2024-01-15T03:19:02;33.40;;;14.40;;
20080;SDS011;10200;49.232;9.222;2024-01-15T03:21:28;33.67;;;15.07;;
20080;SDS011;10200;49.232;9.222;2024-01-15T03:23:53;32.97;;;15.63;;
20080;SDS011;10200;49.232;9.222;2024-01-15T03:26:19;34.00;;;15.33;;
20080;SDS011;10200;49.232;9.222;2024-01-15T03:28:45;29.80;;;13.80;;
20080;SDS011;10200;49.232;9.222;2024-01-15T03:31:10;33.63;;;15.43;;
20080;SDS011;10200;49.232;9.222;2024-01-15T03:33:36;34.10;;;15.70;;
20080;SDS011;10200;49.232;9.222;2024-01-15T03:36:01;36.77;;;15.73;;
20080;SDS011;10200;49.232;9.222;2024-01-15T03:38:28;35.90;;;15.67;;
20080;SDS011;10200;49.232;9.222;2024-01-15T03:40:54;39.10;;;16.00;;
20080;SDS011;10200;49.232;9.222;2024-01-15T03:43:19;31.47;;;14.97;;
20080;SDS011;10200;49.232;9.222;2024-01-15T03:45:45;30.30;;;14.77;;
20080;SDS011;10200;49.232;9.222;2024-01-15T03:48:10;39.43;;;15.90;;
20080;SDS011;10200;49.232;9.222;2024-01-15T03:50:36;31.77;;;14.93;;
20080;SDS011;10200;49.232;9.222;2024-01-15T03:53:02;35.53;;;14.83;;
20080;SDS011;10200;49.232;9.222;2024-01-15T03:55:27;32.27;;;16.13;;
20080;SDS011;10200;49.232;9.222;2024-01-15T03:57:53;38.13;;;16.53;;
20080;SDS011;10200;49.232;9.222;2024-01-15T04:00:19;30.97;;;15.17;;
20080;SDS011;10200;49.232;9.222;2024-01-15T04:02:44;30.53;;;15.50;;
20080;SDS011;10200;49.232;9.222;2024-01-15T04:05:10;34.13;;;16.07;;
20080;SDS011;10200;49.232;9.222;2024-01-15T04:07:35;37.43;;;15.60;;
20080;SDS011;10200;49.232;9.222;2024-01-15T04:10:01;38.10;;;16.57;;
20080;SDS011;10200;49.232;9.222;2024-01-15T04:12:27;35.13;;;15.70;;
20080;SDS011;10200;49.232;9.222;2024-01-15T04:14:52;35.23;;;15.90;;
20080;SDS011;10200;49.232;9.222;2024-01-15T04:17:18;34.33;;;15.50;;
20080;SDS011;10200;49.232;9.222;2024-01-15T04:19:44;36.73;;;15.97;;
20080;SDS011;10200;49.232;9.222;2024-01-15T04:22:09;37.60;;;16.00;;
20080;SDS011;10200;49.232;9.222;2024-01-15T04:24:35;34.03;;;15.40;;
20080;SDS011;10200;49.232;9.222;2024-01-15T04:27:00;37.33;;;15.87;;
20080;SDS011;10200;49.232;9.222;2024-01-15T04:29:26;35.60;;;16.50;;
20080;SDS011;10200;49.232;9.222;2024-01-15T04:31:52;34.57;;;15.37;;
20080;SDS011;10200;49.232;9.222;2024-01-15T04:34:18;30.30;;;14.70;;
20080;SDS011;10200;49.232;9.222;2024-01-15T04:36:44;35.00;;;16.77;;
20080;SDS011;10200;49.232;9.222;2024-01-15T04:39:09;29.87;;;14.67;;
20080;SDS011;10200;49.232;9.222;2024-01-15T04:41:36;37.77;;;15.57;;
20080;SDS011;10200;49.232;9.222;2024-01-15T04:44:02;33.33;;;15.97;;
20080;SDS011;10200;49.232;9.222;2024-01-15T04:46:28;38.67;;;16.93;;
20080;SDS011;10200;49.232;9.222;2024-01-15T04:48:53;35.50;;;15.57;;
20080;SDS011;10200;49.232;9.222;2024-01-15T04:51:19;35.83;;;15.13;;
20080;SDS011;10200;49.232;9.222;2024-01-15T04:53:45;35.10;;;14.97;;
20080;SDS011;10200;49.232;9.222;2024-01-15T04:56:10;35.53;;;14.30;;
20080;SDS011;10200;49.232;9.222;2024-01-15T04:58:36;31.83;;;14.63;;
20080;SDS011;10200;49.232;9.222;2024-01-15T05:01:01;32.10;;;15.00;;
20080;SDS011;10200;49.232;9.222;2024-01-15T05:03:27;36.30;;;15.00;;
20080;SDS011;10200;49.232;9.222;2024-01-15T05:05:52;31.00;;;14.73;;
20080;SDS011;10200;49.232;9.222;2024-01-15T05:08:18;32.63;;;14.83;;
20080;SDS011;10200;49.232;9.222;2024-01-15T05:10:44;32.00;;;15.40;;
20080;SDS011;10200;49.232;9.222;2024-01-15T05:13:10;36.73;;;16.43;;
20080;SDS011;10200;49.232;9.222;2024-01-15T05:15:35;36.93;;;16.17;;
20080;SDS011;10200;49.232;9.222;2024-01-15T05:18:01;34.30;;;14.93;;
20080;SDS011;10200;49.232;9.222;2024-01-15T05:20:27;32.80;;;15.93;;
20080;SDS011;10200;49.232;9.222;2024-01-15T05:22:52;30.20;;;14.73;;
20080;SDS011;10200;49.232;9.222;2024-01-15T05:25:18;33.40;;;14.53;;
20080;SDS011;10200;49.232;9.222;2024-01-15T05:27:43;38.07;;;16.63;;
20080;SDS011;10200;49.232;9.222;2024-01-15T05:30:09;32.10;;;14.20;;
20080;SDS011;10200;49.232;9.222;2024-01-15T05:32:35;29.43;;;14.73;;
20080;SDS011;10200;49.232;9.222;2024-01-15T05:35:00;32.40;;;15.00;;
20080;SDS011;10200;49.232;9.222;2024-01-15T05:37:26;31.80;;;14.57;;
20080;SDS011;10200;49.232;9.222;2024-01-15T05:39:51;38.93;;;16.97;;
20080;SDS011;10200;49.232;9.222;2024-01-15T05:42:17;34.77;;;15.20;;
20080;SDS011;10200;49.232;9.222;2024-01-15T05:44:43;36.70;;;16.00;;
20080;SDS011;10200;49.232;9.222;2024-01-15T05:47:08;41.93;;;14.23;;
20080;SDS011;10200;49.232;9.222;2024-01-15T05:49:34;32.00;;;14.37;;
20080;SDS011;10200;49.232;9.222;2024-01-15T05:51:59;29.90;;;14.27;;
20080;SDS011;10200;49.232;9.222;2024-01-15T05:54:25;29.10;;;13.57;;
20080;SDS011;10200;49.232;9.222;2024-01-15T05:56:51;31.60;;;14.87;;
20080;SDS011;10200;49.232;9.222;2024-01-15T05:59:16;26.83;;;13.60;;
20080;SDS011;10200;49.232;9.222;2024-01-15T06:01:42;25.63;;;13.53;;
20080;SDS011;10200;49.232;9.222;2024-01-15T06:04:07;29.37;;;13.27;;
20080;SDS011;10200;49.232;9.222;2024-01-15T06:06:33;29.27;;;14.57;;
20080;SDS011;10200;49.232;9.222;2024-01-15T06:08:59;29.80;;;13.27;;
20080;SDS011;10200;49.232;9.222;2024-01-15T06:11:30;28.63;;;13.47;;
20080;SDS011;10200;49.232;9.222;2024-01-15T06:13:59;29.50;;;13.63;;
20080;SDS011;10200;49.232;9.222;2024-01-15T06:16:27;29.20;;;14.73;;
20080;SDS011;10200;49.232;9.222;2024-01-15T06:18:54;30.80;;;13.93;;
20080;SDS011;10200;49.232;9.222;2024-01-15T06:21:19;25.80;;;13.30;;
20080;SDS011;10200;49.232;9.222;2024-01-15T06:23:45;25.90;;;12.43;;
20080;SDS011;10200;49.232;9.222;2024-01-15T06:26:13;28.70;;;13.20;;
20080;SDS011;10200;49.232;9.222;2024-01-15T06:28:39;24.93;;;12.87;;
20080;SDS011;10200;49.232;9.222;2024-01-15T06:31:06;26.57;;;13.37;;
20080;SDS011;10200;49.232;9.222;2024-01-15T06:33:32;25.93;;;13.07;;
20080;SDS011;10200;49.232;9.222;2024-01-15T06:35:57;23.63;;;12.10;;
20080;SDS011;10200;49.232;9.222;2024-01-15T06:38:23;27.33;;;12.53;;
20080;SDS011;10200;49.232;9.222;2024-01-15T06:40:50;24.83;;;13.37;;
20080;SDS011;10200;49.232;9.222;2024-01-15T06:43:16;26.50;;;13.13;;
20080;SDS011;10200;49.232;9.222;2024-01-15T06:45:43;28.00;;;13.77;;
20080;SDS011;10200;49.232;9.222;2024-01-15T06:48:09;27.97;;;12.47;;
20080;SDS011;10200;49.232;9.222;2024-01-15T06:50:34;26.73;;;13.00;;
20080;SDS011;10200;49.232;9.222;2024-01-15T06:53:00;29.17;;;13.13;;
20080;SDS011;10200;49.232;9.222;2024-01-15T06:55:25;25.93;;;12.03;;
20080;SDS011;10200;49.232;9.222;2024-01-15T06:57:51;32.53;;;12.47;;
20080;SDS011;10200;49.232;9.222;2024-01-15T07:00:17;28.00;;;13.07;;
20080;SDS011;10200;49.232;9.222;2024-01-15T07:02:44;26.20;;;13.30;;
20080;SDS011;10200;49.232;9.222;2024-01-15T07:05:10;27.83;;;14.20;;
20080;SDS011;10200;49.232;9.222;2024-01-15T07:07:36;28.87;;;12.73;;
20080;SDS011;10200;49.232;9.222;2024-01-15T07:10:02;25.27;;;13.03;;
20080;SDS011;10200;49.232;9.222;2024-01-15T07:12:28;28.93;;;13.03;;
20080;SDS011;10200;49.232;9.222;2024-01-15T07:14:55;27.83;;;13.80;;
20080;SDS011;10200;49.232;9.222;2024-01-15T07:17:21;26.93;;;13.43;;
20080;SDS011;10200;49.232;9.222;2024-01-15T07:19:47;24.97;;;12.87;;
20080;SDS011;10200;49.232;9.222;2024-01-15T07:22:12;24.73;;;12.00;;
20080;SDS011;10200;49.232;9.222;2024-01-15T07:24:38;26.50;;;13.00;;
20080;SDS011;10200;49.232;9.222;2024-01-15T07:27:04;23.23;;;11.73;;
20080;SDS011;10200;49.232;9.222;2024-01-15T07:29:30;26.33;;;12.37;;
20080;SDS011;10200;49.232;9.222;2024-01-15T07:31:58;26.00;;;12.13;;
20080;SDS011;10200;49.232;9.222;2024-01-15T07:34:23;26.73;;;13.17;;
20080;SDS011;10200;49.232;9.222;2024-01-15T07:36:49;24.00;;;12.70;;
20080;SDS011;10200;49.232;9.222;2024-01-15T07:39:14;25.60;;;11.97;;
20080;SDS011;10200;49.232;9.222;2024-01-15T07:41:40;30.20;;;14.60;;
20080;SDS011;10200;49.232;9.222;2024-01-15T07:44:05;25.77;;;12.10;;
20080;SDS011;10200;49.232;9.222;2024-01-15T07:46:31;25.57;;;13.30;;
20080;SDS011;10200;49.232;9.222;2024-01-15T07:48:57;25.80;;;13.13;;
20080;SDS011;10200;49.232;9.222;2024-01-15T07:51:25;26.53;;;12.70;;
20080;SDS011;10200;49.232;9.222;2024-01-15T07:53:53;30.83;;;14.07;;
20080;SDS011;10200;49.232;9.222;2024-01-15T07:56:19;30.13;;;14.30;;
20080;SDS011;10200;49.232;9.222;2024-01-15T07:58:45;30.17;;;13.63;;
20080;SDS011;10200;49.232;9.222;2024-01-15T08:01:11;30.23;;;13.23;;
20080;SDS011;10200;49.232;9.222;2024-01-15T08:03:37;27.13;;;12.93;;
20080;SDS011;10200;49.232;9.222;2024-01-15T08:06:02;30.03;;;14.10;;
20080;SDS011;10200;49.232;9.222;2024-01-15T08:08:28;29.73;;;13.80;;
20080;SDS011;10200;49.232;9.222;2024-01-15T08:10:54;28.60;;;12.70;;
20080;SDS011;10200;49.232;9.222;2024-01-15T08:13:19;27.57;;;14.17;;
20080;SDS011;10200;49.232;9.222;2024-01-15T08:15:45;31.87;;;13.90;;
20080;SDS011;10200;49.232;9.222;2024-01-15T08:18:11;32.07;;;14.90;;
20080;SDS011;10200;49.232;9.222;2024-01-15T08:20:37;28.70;;;13.67;;
20080;SDS011;10200;49.232;9.222;2024-01-15T08:23:03;30.80;;;15.33;;
20080;SDS011;10200;49.232;9.222;2024-01-15T08:25:29;30.23;;;15.93;;
20080;SDS011;10200;49.232;9.222;2024-01-15T08:27:56;26.10;;;14.37;;
20080;SDS011;10200;49.232;9.222;2024-01-15T08:30:22;33.57;;;15.90;;
20080;SDS011;10200;49.232;9.222;2024-01-15T08:32:52;28.40;;;13.37;;
20080;SDS011;10200;49.232;9.222;2024-01-15T08:35:21;36.23;;;15.17;;
20080;SDS011;10200;49.232;9.222;2024-01-15T08:37:54;30.53;;;15.90;;
20080;SDS011;10200;49.232;9.222;2024-01-15T08:40:20;29.07;;;14.27;;
20080;SDS011;10200;49.232;9.222;2024-01-15T08:42:45;31.10;;;14.40;;
20080;SDS011;10200;49.232;9.222;2024-01-15T08:45:11;31.23;;;14.47;;
20080;SDS011;10200;49.232;9.222;2024-01-15T08:47:37;33.50;;;15.57;;
20080;SDS011;10200;49.232;9.222;2024-01-15T08:50:03;28.20;;;14.40;;
20080;SDS011;10200;49.232;9.222;2024-01-15T08:52:29;35.93;;;15.70;;
20080;SDS011;10200;49.232;9.222;2024-01-15T08:54:56;28.23;;;14.60;;
20080;SDS011;10200;49.232;9.222;2024-01-15T08:57:22;29.60;;;15.57;;
20080;SDS011;10200;49.232;9.222;2024-01-15T08:59:48;29.67;;;14.30;;
20080;SDS011;10200;49.232;9.222;2024-01-15T09:02:14;31.20;;;15.63;;
20080;SDS011;10200;49.232;9.222;2024-01-15T09:04:40;31.90;;;16.07;;
20080;SDS011;10200;49.232;9.222;2024-01-15T09:07:07;28.20;;;14.97;;
20080;SDS011;10200;49.232;9.222;2024-01-15T09:09:32;33.20;;;15.10;;
20080;SDS011;10200;49.232;9.222;2024-01-15T09:11:59;26.20;;;13.63;;
20080;SDS011;10200;49.232;9.222;2024-01-15T09:14:24;28.90;;;15.47;;
20080;SDS011;10200;49.232;9.222;2024-01-15T09:16:52;28.00;;;13.77;;
20080;SDS011;10200;49.232;9.222;2024-01-15T09:19:21;39.33;;;19.67;;
20080;SDS011;10200;49.232;9.222;2024-01-15T09:21:47;33.13;;;15.10;;
20080;SDS011;10200;49.232;9.222;2024-01-15T09:33:58;33.83;;;16.47;;
20080;SDS011;10200;49.232;9.222;2024-01-15T09:36:25;33.40;;;17.20;;
20080;SDS011;10200;49.232;9.222;2024-01-15T09:38:51;37.37;;;19.00;;
20080;SDS011;10200;49.232;9.222;2024-01-15T09:41:16;33.73;;;17.33;;
20080;SDS011;10200;49.232;9.222;2024-01-15T09:43:42;29.83;;;14.67;;
20080;SDS011;10200;49.232;9.222;2024-01-15T09:46:08;27.77;;;14.73;;
20080;SDS011;10200;49.232;9.222;2024-01-15T09:48:33;28.97;;;15.23;;
20080;SDS011;10200;49.232;9.222;2024-01-15T09:51:00;33.77;;;16.80;;
20080;SDS011;10200;49.232;9.222;2024-01-15T09:53:26;27.87;;;14.67;;
20080;SDS011;10200;49.232;9.222;2024-01-15T09:55:52;24.13;;;13.67;;
20080;SDS011;10200;49.232;9.222;2024-01-15T09:58:18;28.17;;;13.70;;
20080;SDS011;10200;49.232;9.222;2024-01-15T10:00:44;27.57;;;14.17;;
20080;SDS011;10200;49.232;9.222;2024-01-15T10:03:12;26.13;;;13.10;;
20080;SDS011;10200;49.232;9.222;2024-01-15T10:05:38;28.40;;;14.20;;
20080;SDS011;10200;49.232;9.222;2024-01-15T10:08:04;27.27;;;12.97;;
20080;SDS011;10200;49.232;9.222;2024-01-15T10:10:30;24.60;;;12.93;;
20080;SDS011;10200;49.232;9.222;2024-01-15T10:12:56;25.17;;;13.07;;
20080;SDS011;10200;49.232;9.222;2024-01-15T10:15:23;24.23;;;13.23;;
20080;SDS011;10200;49.232;9.222;2024-01-15T10:17:51;25.00;;;13.23;;
20080;SDS011;10200;49.232;9.222;2024-01-15T10:20:17;28.40;;;12.70;;
20080;SDS011;10200;49.232;9.222;2024-01-15T10:22:43;30.77;;;14.03;;
20080;SDS011;10200;49.232;9.222;2024-01-15T10:25:13;29.60;;;14.30;;
20080;SDS011;10200;49.232;9.222;2024-01-15T10:27:40;27.07;;;12.93;;
20080;SDS011;10200;49.232;9.222;2024-01-15T10:30:07;23.03;;;11.90;;
20080;SDS011;10200;49.232;9.222;2024-01-15T10:32:36;20.90;;;10.93;;
20080;SDS011;10200;49.232;9.222;2024-01-15T10:35:01;25.23;;;12.67;;
20080;SDS011;10200;49.232;9.222;2024-01-15T10:37:29;20.77;;;11.17;;
20080;SDS011;10200;49.232;9.222;2024-01-15T10:40:00;24.60;;;11.80;;
20080;SDS011;10200;49.232;9.222;2024-01-15T10:42:31;20.70;;;10.43;;
20080;SDS011;10200;49.232;9.222;2024-01-15T10:44:57;21.70;;;11.57;;
20080;SDS011;10200;49.232;9.222;2024-01-15T10:47:23;18.17;;;9.87;;
20080;SDS011;10200;49.232;9.222;2024-01-15T10:49:48;21.27;;;11.40;;
20080;SDS011;10200;49.232;9.222;2024-01-15T10:52:15;20.57;;;11.50;;
20080;SDS011;10200;49.232;9.222;2024-01-15T10:54:40;20.47;;;10.93;;
20080;SDS011;10200;49.232;9.222;2024-01-15T10:57:08;23.13;;;12.20;;
20080;SDS011;10200;49.232;9.222;2024-01-15T10:59:33;20.73;;;11.23;;
20080;SDS011;10200;49.232;9.222;2024-01-15T11:02:01;23.13;;;11.67;;
20080;SDS011;10200;49.232;9.222;2024-01-15T11:04:27;22.40;;;10.97;;
20080;SDS011;10200;49.232;9.222;2024-01-15T11:06:53;24.33;;;11.57;;
20080;SDS011;10200;49.232;9.222;2024-01-15T11:09:20;23.13;;;11.47;;
20080;SDS011;10200;49.232;9.222;2024-01-15T11:11:46;20.63;;;11.73;;
20080;SDS011;10200;49.232;9.222;2024-01-15T11:17:01;25.63;;;11.63;;
20080;SDS011;10200;49.232;9.222;2024-01-15T11:22:05;26.10;;;10.33;;
20080;SDS011;10200;49.232;9.222;2024-01-15T11:24:38;21.73;;;11.33;;
20080;SDS011;10200;49.232;9.222;2024-01-15T11:27:05;20.20;;;10.97;;
20080;SDS011;10200;49.232;9.222;2024-01-15T11:29:36;23.93;;;12.20;;
20080;SDS011;10200;49.232;9.222;2024-01-15T11:32:08;24.10;;;11.07;;
20080;SDS011;10200;49.232;9.222;2024-01-15T11:34:50;22.93;;;12.43;;
20080;SDS011;10200;49.232;9.222;2024-01-15T11:37:23;26.63;;;13.27;;
20080;SDS011;10200;49.232;9.222;2024-01-15T11:39:53;23.50;;;11.97;;
20080;SDS011;10200;49.232;9.222;2024-01-15T11:42:20;24.90;;;11.83;;
20080;SDS011;10200;49.232;9.222;2024-01-15T11:44:48;23.67;;;12.23;;
20080;SDS011;10200;49.232;9.222;2024-01-15T11:47:14;22.67;;;11.90;;
20080;SDS011;10200;49.232;9.222;2024-01-15T11:52:15;24.67;;;12.00;;
20080;SDS011;10200;49.232;9.222;2024-01-15T11:55:29;25.10;;;12.70;;
20080;SDS011;10200;49.232;9.222;2024-01-15T12:00:08;22.83;;;11.93;;
20080;SDS011;10200;49.232;9.222;2024-01-15T12:02:36;23.70;;;11.93;;
20080;SDS011;10200;49.232;9.222;2024-01-15T12:05:06;23.00;;;11.57;;
20080;SDS011;10200;49.232;9.222;2024-01-15T12:07:33;20.90;;;11.47;;
20080;SDS011;10200;49.232;9.222;2024-01-15T12:09:59;21.57;;;10.53;;
20080;SDS011;10200;49.232;9.222;2024-01-15T12:12:47;18.43;;;11.43;;
20080;SDS011;10200;49.232;9.222;2024-01-15T12:15:17;22.03;;;10.73;;
20080;SDS011;10200;49.232;9.222;2024-01-15T12:17:43;20.40;;;9.90;;
20080;SDS011;10200;49.232;9.222;2024-01-15T12:20:10;20.70;;;9.37;;
20080;SDS011;10200;49.232;9.222;2024-01-15T12:22:37;16.30;;;9.07;;
20080;SDS011;10200;49.232;9.222;2024-01-15T12:25:03;22.43;;;10.73;;
20080;SDS011;10200;49.232;9.222;2024-01-15T12:27:29;18.13;;;11.00;;
20080;SDS011;10200;49.232;9.222;2024-01-15T12:29:55;19.27;;;10.27;;
20080;SDS011;10200;49.232;9.222;2024-01-15T12:32:20;16.93;;;10.20;;
20080;SDS011;10200;49.232;9.222;2024-01-15T12:34:49;17.87;;;9.70;;
20080;SDS011;10200;49.232;9.222;2024-01-15T12:37:15;17.20;;;10.10;;
20080;SDS011;10200;49.232;9.222;2024-01-15T12:39:43;17.43;;;9.53;;
20080;SDS011;10200;49.232;9.222;2024-01-15T12:42:09;20.03;;;9.80;;
20080;SDS011;10200;49.232;9.222;2024-01-15T12:44:35;18.77;;;10.43;;
20080;SDS011;10200;49.232;9.222;2024-01-15T12:47:03;17.53;;;9.53;;
20080;SDS011;10200;49.232;9.222;2024-01-15T12:49:29;18.80;;;10.13;;
20080;SDS011;10200;49.232;9.222;2024-01-15T12:51:58;14.53;;;9.37;;
20080;SDS011;10200;49.232;9.222;2024-01-15T12:54:25;16.17;;;9.20;;
20080;SDS011;10200;49.232;9.222;2024-01-15T12:56:52;22.50;;;10.33;;
20080;SDS011;10200;49.232;9.222;2024-01-15T12:59:18;18.47;;;9.90;;
20080;SDS011;10200;49.232;9.222;2024-01-15T13:01:44;17.13;;;10.17;;
20080;SDS011;10200;49.232;9.222;2024-01-15T13:04:11;16.13;;;9.00;;
20080;SDS011;10200;49.232;9.222;2024-01-15T13:06:45;18.07;;;9.27;;
20080;SDS011;10200;49.232;9.222;2024-01-15T13:09:11;14.10;;;9.30;;
20080;SDS011;10200;49.232;9.222;2024-01-15T13:11:36;16.87;;;9.30;;
20080;SDS011;10200;49.232;9.222;2024-01-15T13:14:02;14.50;;;8.57;;
20080;SDS011;10200;49.232;9.222;2024-01-15T13:16:28;15.43;;;9.03;;
20080;SDS011;10200;49.232;9.222;2024-01-15T13:18:54;14.87;;;8.03;;
20080;SDS011;10200;49.232;9.222;2024-01-15T13:21:21;16.77;;;9.43;;
20080;SDS011;10200;49.232;9.222;2024-01-15T13:23:47;17.17;;;9.37;;
20080;SDS011;10200;49.232;9.222;2024-01-15T13:26:12;13.97;;;9.17;;
20080;SDS011;10200;49.232;9.222;2024-01-15T13:28:38;13.17;;;8.73;;
20080;SDS011;10200;49.232;9.222;2024-01-15T13:31:04;13.73;;;9.17;;
20080;SDS011;10200;49.232;9.222;2024-01-15T13:33:30;17.30;;;8.83;;
20080;SDS011;10200;49.232;9.222;2024-01-15T13:35:55;15.73;;;8.83;;
20080;SDS011;10200;49.232;9.222;2024-01-15T13:38:21;16.10;;;9.33;;
20080;SDS011;10200;49.232;9.222;2024-01-15T13:40:46;13.07;;;8.23;;
20080;SDS011;10200;49.232;9.222;2024-01-15T13:43:12;13.20;;;8.63;;
20080;SDS011;10200;49.232;9.222;2024-01-15T13:45:39;16.17;;;8.70;;
20080;SDS011;10200;49.232;9.222;2024-01-15T13:48:06;13.77;;;8.10;;
20080;SDS011;10200;49.232;9.222;2024-01-15T13:50:33;13.00;;;8.37;;
20080;SDS011;10200;49.232;9.222;2024-01-15T13:53:00;11.00;;;7.80;;
20080;SDS011;10200;49.232;9.222;2024-01-15T13:55:26;12.07;;;7.20;;
20080;SDS011;10200;49.232;9.222;2024-01-15T13:57:53;13.60;;;7.67;;
20080;SDS011;10200;49.232;9.222;2024-01-15T14:00:19;16.57;;;8.20;;
20080;SDS011;10200;49.232;9.222;2024-01-15T14:02:45;8.37;;;6.13;;
20080;SDS011;10200;49.232;9.222;2024-01-15T14:05:11;12.30;;;8.13;;
20080;SDS011;10200;49.232;9.222;2024-01-15T14:07:38;13.40;;;7.83;;
20080;SDS011;10200;49.232;9.222;2024-01-15T14:10:04;14.73;;;7.80;;
20080;SDS011;10200;49.232;9.222;2024-01-15T14:12:30;10.87;;;7.20;;
20080;SDS011;10200;49.232;9.222;2024-01-15T14:14:56;11.57;;;6.70;;
20080;SDS011;10200;49.232;9.222;2024-01-15T14:17:22;10.47;;;7.17;;
20080;SDS011;10200;49.232;9.222;2024-01-15T14:19:47;12.60;;;7.57;;
20080;SDS011;10200;49.232;9.222;2024-01-15T14:22:13;11.47;;;7.47;;
20080;SDS011;10200;49.232;9.222;2024-01-15T14:24:38;12.53;;;7.33;;
20080;SDS011;10200;49.232;9.222;2024-01-15T14:27:04;12.83;;;7.30;;
20080;SDS011;10200;49.232;9.222;2024-01-15T14:29:32;10.93;;;7.07;;
20080;SDS011;10200;49.232;9.222;2024-01-15T14:31:57;11.10;;;6.60;;
20080;SDS011;10200;49.232;9.222;2024-01-15T14:34:24;10.83;;;7.13;;
20080;SDS011;10200;49.232;9.222;2024-01-15T14:36:50;12.73;;;6.80;;
20080;SDS011;10200;49.232;9.222;2024-01-15T14:39:18;11.40;;;7.90;;